TimeEST,TemperatureF,Dew PointF,Humidity,Sea Level PressureIn,VisibilityMPH,Wind Direction,Wind SpeedMPH,Gust SpeedMPH,PrecipitationIn,Events,Conditions,WindDirDegrees,DateUTC
12:54 AM,37.0,34.0,89,30.04,6.0,Calm,Calm,-,0.05,Rain,Rain,0,2013-12-29 05:54:00
1:54 AM,37.9,37.0,97,30.01,6.0,NNE,3.5,-,0.07,Rain,Light Rain,20,2013-12-29 06:54:00
2:54 AM,37.9,37.9,100,29.96,6.0,NE,4.6,-,0.05,Rain,Light Rain,50,2013-12-29 07:54:00
3:54 AM,39.9,39.0,97,29.91,6.0,ENE,6.9,-,0.03,Rain,Light Rain,60,2013-12-29 08:54:00
4:54 AM,39.9,39.9,100,29.87,6.0,East,5.8,-,0.18,Rain,Rain,80,2013-12-29 09:54:00
5:54 AM,39.9,39.9,100,29.83,4.0,East,4.6,-,0.05,Rain,Light Rain,90,2013-12-29 10:54:00
6:23 AM,39.2,39.2,100,29.82,4.0,NE,5.8,-,0.05,Rain,Rain,50,2013-12-29 11:23:00
6:54 AM,39.9,39.9,100,29.83,5.0,ENE,6.9,-,0.10,Rain,Rain,60,2013-12-29 11:54:00
7:43 AM,41.0,41.0,100,29.81,1.0,Calm,Calm,-,0.05,Rain,Light Rain,0,2013-12-29 12:43:00
7:54 AM,41.0,41.0,100,29.82,1.0,Calm,Calm,-,0.06,Rain,Light Rain,0,2013-12-29 12:54:00
8:45 AM,41.0,41.0,100,29.80,1.0,Calm,Calm,-,0.01,Rain,Light Rain,0,2013-12-29 13:45:00
8:54 AM,41.0,41.0,100,29.80,1.0,Calm,Calm,-,0.01,Rain,Light Rain,0,2013-12-29 13:54:00
9:54 AM,42.1,42.1,100,29.77,1.0,Calm,Calm,-,0.01,Rain,Light Rain,0,2013-12-29 14:54:00
10:54 AM,42.1,42.1,100,29.76,1.0,WSW,4.6,-,0.02,Rain,Light Rain,240,2013-12-29 15:54:00
11:54 AM,42.1,42.1,100,29.78,1.0,WSW,12.7,19.6,0.07,Rain,Light Rain,250,2013-12-29 16:54:00
12:37 PM,42.8,41.0,93,29.77,7.0,WSW,13.8,25.3,0.05,Rain,Light Rain,250,2013-12-29 17:37:00
12:54 PM,42.1,39.9,92,29.79,7.0,WSW,10.4,23.0,0.07,Rain,Light Rain,250,2013-12-29 17:54:00
1:54 PM,41.0,39.9,96,29.81,6.0,West,13.8,20.7,0.06,Rain,Light Rain,260,2013-12-29 18:54:00
2:54 PM,42.1,41.0,96,29.82,9.0,WSW,9.2,-,0.02,Rain,Light Rain,250,2013-12-29 19:54:00
3:54 PM,42.1,41.0,96,29.84,10.0,SW,5.8,-,0.00,,Overcast,220,2013-12-29 20:54:00
4:54 PM,43.0,41.0,93,29.86,10.0,WSW,9.2,-,N/A,,Overcast,240,2013-12-29 21:54:00
5:54 PM,43.0,41.0,93,29.88,10.0,SW,9.2,-,0.00,,Overcast,230,2013-12-29 22:54:00
6:40 PM,42.8,39.2,87,29.90,10.0,WSW,10.4,-,N/A,,Overcast,240,2013-12-29 23:40:00
6:54 PM,43.0,39.9,89,29.91,10.0,WSW,8.1,-,N/A,,Overcast,240,2013-12-29 23:54:00
7:54 PM,43.0,39.9,89,29.94,10.0,WSW,11.5,16.1,N/A,,Overcast,250,2013-12-30 00:54:00
8:54 PM,43.0,39.0,86,29.95,10.0,SW,11.5,21.9,N/A,,Overcast,230,2013-12-30 01:54:00
9:54 PM,43.0,39.0,86,29.96,10.0,SW,8.1,-,N/A,,Overcast,230,2013-12-30 02:54:00
10:54 PM,42.1,39.0,89,29.96,10.0,SW,6.9,-,N/A,,Overcast,220,2013-12-30 03:54:00
11:54 PM,42.1,39.0,89,29.95,9.0,WSW,5.8,-,0.00,,Unknown,240,2013-12-30 04:54:00